createdAt,value
2022-11-16T00:02:13.167Z,76.80
2022-11-16T00:04:40.257Z,76.91
2022-11-16T00:07:07.189Z,77.01
2022-11-16T00:09:33.970Z,77.26
2022-11-16T00:12:04.641Z,77.47
2022-11-16T00:14:36.076Z,77.87
2022-11-16T00:17:03.591Z,77.46
2022-11-16T00:19:30.439Z,77.77
2022-11-16T00:21:57.124Z,77.68
2022-11-16T00:24:23.754Z,77.80
2022-11-16T00:26:51.034Z,77.82
2022-11-16T00:29:22.032Z,78.21
2022-11-16T00:31:49.236Z,78.18
2022-11-16T00:34:16.330Z,78.06
2022-11-16T00:36:42.973Z,78.07
2022-11-16T00:39:15.382Z,78.51
2022-11-16T00:41:43.166Z,78.22
2022-11-16T00:44:10.427Z,78.39
2022-11-16T00:46:37.496Z,78.14
2022-11-16T00:49:05.488Z,78.39
2022-11-16T00:51:32.917Z,78.41
2022-11-16T00:53:59.472Z,78.47
2022-11-16T00:56:25.955Z,78.41
2022-11-16T00:58:52.506Z,78.57
2022-11-16T01:01:19.320Z,78.68
2022-11-16T01:03:46.017Z,78.73
2022-11-16T01:06:14.233Z,78.87
2022-11-16T01:08:42.043Z,78.72
2022-11-16T01:11:31.137Z,78.73
2022-11-16T01:13:57.811Z,78.63
2022-11-16T01:16:27.227Z,78.94
2022-11-16T01:18:55.047Z,78.75
2022-11-16T01:21:22.616Z,78.72
2022-11-16T01:23:49.620Z,78.86
2022-11-16T01:26:16.033Z,78.75
2022-11-16T01:28:42.568Z,78.88
2022-11-16T01:31:10.542Z,78.89
2022-11-16T01:33:37.467Z,79.01
2022-11-16T01:36:14.293Z,79.60
2022-11-16T01:38:45.593Z,79.14
2022-11-16T01:41:18.531Z,79.40
2022-11-16T01:43:50.726Z,79.67
2022-11-16T01:46:17.147Z,78.93
2022-11-16T01:48:44.184Z,78.94
2022-11-16T01:51:10.757Z,79.06
2022-11-16T01:53:37.633Z,79.25
2022-11-16T01:56:04.830Z,79.02
2022-11-16T01:58:31.636Z,79.02
2022-11-16T02:00:58.379Z,79.11
2022-11-16T02:03:25.777Z,79.25
2022-11-16T02:06:18.556Z,80.19
2022-11-16T02:09:19.629Z,80.61
2022-11-16T02:12:05.311Z,80.18
2022-11-16T02:14:50.431Z,80.36
2022-11-16T02:18:04.136Z,80.27
2022-11-16T02:20:46.637Z,80.23
2022-11-16T02:23:15.790Z,79.76
2022-11-16T02:26:01.041Z,80.36
2022-11-16T02:29:18.739Z,80.36
2022-11-16T02:31:51.919Z,79.97
2022-11-16T02:34:21.166Z,79.61
2022-11-16T02:36:53.177Z,80.10
2022-11-16T02:39:24.683Z,80.16
2022-11-16T02:41:53.143Z,79.93
2022-11-16T02:44:28.773Z,80.50
2022-11-16T02:46:59.209Z,79.85
2022-11-16T02:49:27.502Z,80.25
2022-11-16T02:51:54.759Z,80.47
2022-11-16T02:54:23.573Z,80.51
2022-11-16T02:57:22.269Z,81.53
2022-11-16T02:59:54.284Z,80.78
2022-11-16T03:02:46.879Z,81.47
2022-11-16T03:05:35.447Z,81.68
2022-11-16T03:08:13.679Z,81.63
2022-11-16T03:11:02.037Z,80.99
2022-11-16T03:13:32.618Z,81.21
2022-11-16T03:16:01.049Z,81.32
2022-11-16T03:18:29.097Z,81.04
2022-11-16T03:21:05.482Z,81.71
2022-11-16T03:23:32.419Z,81.11
2022-11-16T03:26:05.181Z,81.52
2022-11-16T03:28:46.785Z,81.65
2022-11-16T03:31:24.313Z,81.80
2022-11-16T03:33:56.086Z,81.70
2022-11-16T03:36:32.819Z,82.30
2022-11-16T03:39:05.593Z,81.62
2022-11-16T03:41:35.368Z,81.61
2022-11-16T03:44:02.271Z,81.30
2022-11-16T03:46:28.971Z,81.51
2022-11-16T03:49:00.721Z,81.71
2022-11-16T03:51:27.549Z,81.41
2022-11-16T03:53:56.991Z,81.44
2022-11-16T03:56:23.511Z,81.31
2022-11-16T03:58:49.982Z,81.22
2022-11-16T04:01:16.442Z,81.55
2022-11-16T04:03:43.003Z,81.08
2022-11-16T04:06:29.582Z,81.00
2022-11-16T04:09:28.703Z,80.95
2022-11-16T04:12:14.024Z,80.98
2022-11-16T04:14:59.400Z,80.77
2022-11-16T04:17:45.070Z,80.86
2022-11-16T04:20:32.953Z,81.02
2022-11-16T04:23:21.103Z,81.25
2022-11-16T04:25:50.069Z,80.76
2022-11-16T04:28:19.776Z,80.86
2022-11-16T04:31:10.896Z,81.21
2022-11-16T04:34:03.671Z,80.62
2022-11-16T04:36:48.573Z,80.76
2022-11-16T04:39:15.174Z,80.49
2022-11-16T04:41:59.900Z,80.62
2022-11-16T04:44:46.299Z,80.80
2022-11-16T04:47:12.686Z,80.83
2022-11-16T04:49:39.473Z,80.75
2022-11-16T04:52:06.137Z,80.90
2022-11-16T04:54:32.657Z,81.02
2022-11-16T04:56:59.070Z,81.04
2022-11-16T04:59:25.507Z,80.91
2022-11-16T05:02:09.971Z,80.97
2022-11-16T05:04:41.252Z,81.44
2022-11-16T05:07:13.236Z,81.15
2022-11-16T05:09:42.800Z,81.18
2022-11-16T05:12:11.487Z,81.05
2022-11-16T05:14:37.934Z,81.21
2022-11-16T05:17:04.503Z,81.22
2022-11-16T05:19:49.310Z,81.14
2022-11-16T05:22:15.726Z,80.82
2022-11-16T05:24:42.227Z,80.85
2022-11-16T05:27:12.772Z,81.21
2022-11-16T05:29:39.938Z,81.08
2022-11-16T05:32:07.287Z,81.19
2022-11-16T05:34:34.359Z,81.36
2022-11-16T05:37:00.780Z,81.60
2022-11-16T05:39:27.304Z,81.53
2022-11-16T05:41:53.914Z,81.59
2022-11-16T05:44:20.792Z,81.68
2022-11-16T05:46:47.422Z,81.81
2022-11-16T05:49:14.557Z,81.62
2022-11-16T05:51:43.024Z,82.22
2022-11-16T05:54:13.601Z,82.74
2022-11-16T05:56:40.364Z,82.44
2022-11-16T05:59:07.847Z,82.62
2022-11-16T06:01:35.634Z,82.51
2022-11-16T06:04:02.864Z,82.41
2022-11-16T06:06:29.664Z,82.46
2022-11-16T06:08:56.264Z,82.75
2022-11-16T06:11:22.889Z,83.03
2022-11-16T06:13:49.491Z,83.10
2022-11-16T06:16:15.889Z,83.07
2022-11-16T06:18:45.079Z,83.34
2022-11-16T06:21:12.791Z,83.47
2022-11-16T06:23:39.503Z,83.39
2022-11-16T06:26:06.496Z,83.77
2022-11-16T06:28:34.203Z,83.44
2022-11-16T06:31:01.317Z,83.50
2022-11-16T06:33:32.331Z,83.68
2022-11-16T06:36:00.145Z,83.54
2022-11-16T06:38:27.521Z,83.61
2022-11-16T06:40:56.550Z,83.59
2022-11-16T06:43:24.376Z,83.19
2022-11-16T06:45:55.969Z,83.38
2022-11-16T06:48:23.356Z,82.94
2022-11-16T06:50:51.802Z,83.21
2022-11-16T06:53:19.926Z,82.88
2022-11-16T06:55:48.391Z,82.85
2022-11-16T06:58:15.086Z,82.81
2022-11-16T07:00:41.525Z,82.69
2022-11-16T07:03:08.320Z,82.51
2022-11-16T07:05:38.465Z,82.77
2022-11-16T07:08:04.862Z,82.42
2022-11-16T07:10:31.275Z,82.52
2022-11-16T07:12:57.744Z,82.26
2022-11-16T07:15:24.434Z,82.32
2022-11-16T07:17:50.811Z,82.31
2022-11-16T07:20:18.514Z,82.33
2022-11-16T07:22:45.090Z,82.21
2022-11-16T07:25:11.522Z,82.40
2022-11-16T07:27:37.976Z,82.23
2022-11-16T07:30:05.550Z,81.89
2022-11-16T07:32:32.119Z,81.76
2022-11-16T07:34:59.617Z,81.87
2022-11-16T07:37:26.541Z,81.84
2022-11-16T07:39:53.203Z,81.64
2022-11-16T07:42:19.850Z,81.71
2022-11-16T07:44:46.369Z,81.76
2022-11-16T07:47:12.822Z,81.51
2022-11-16T07:49:39.488Z,81.49
2022-11-16T07:52:09.466Z,81.61
2022-11-16T07:54:36.715Z,81.33
2022-11-16T07:57:03.274Z,81.20
2022-11-16T07:59:29.832Z,81.40
2022-11-16T08:01:56.590Z,81.31
2022-11-16T08:04:23.470Z,81.44
2022-11-16T08:06:51.738Z,81.18
2022-11-16T08:09:18.355Z,81.44
2022-11-16T08:11:44.959Z,81.08
2022-11-16T08:14:11.739Z,81.11
2022-11-16T08:16:38.380Z,80.97
2022-11-16T08:19:04.821Z,81.13
2022-11-16T08:21:31.250Z,80.74
2022-11-16T08:23:58.847Z,80.62
2022-11-16T08:26:25.951Z,80.49
2022-11-16T08:28:53.858Z,80.19
2022-11-16T08:31:24.189Z,80.38
2022-11-16T08:33:51.915Z,80.60
2022-11-16T08:36:19.005Z,79.68
2022-11-16T08:38:47.400Z,79.80
2022-11-16T08:41:14.200Z,79.96
2022-11-16T08:43:40.834Z,79.54
2022-11-16T08:46:09.530Z,79.59
2022-11-16T08:48:37.389Z,79.76
2022-11-16T08:51:21.780Z,79.66
2022-11-16T08:53:49.850Z,79.71
2022-11-16T08:56:18.676Z,79.81
2022-11-16T08:58:53.782Z,79.50
2022-11-16T09:01:26.192Z,79.55
2022-11-16T09:03:53.929Z,79.89
2022-11-16T09:06:20.529Z,79.43
2022-11-16T09:08:47.057Z,79.17
2022-11-16T09:11:16.805Z,79.56
2022-11-16T09:13:44.986Z,79.64
2022-11-16T09:16:11.682Z,79.47
2022-11-16T09:18:38.597Z,79.53
2022-11-16T09:21:05.113Z,79.42
2022-11-16T09:23:31.547Z,79.47
2022-11-16T09:26:03.406Z,79.79
2022-11-16T09:28:30.701Z,79.71
2022-11-16T09:31:01.969Z,79.78
2022-11-16T09:33:30.584Z,79.23
2022-11-16T09:36:01.708Z,79.01
2022-11-16T09:38:46.627Z,78.77
2022-11-16T09:41:14.840Z,78.38
2022-11-16T09:43:53.664Z,79.00
2022-11-16T09:46:29.192Z,79.23
2022-11-16T09:49:02.932Z,79.06
2022-11-16T09:51:33.618Z,79.17
2022-11-16T09:54:14.997Z,78.85
2022-11-16T09:56:42.900Z,78.70
2022-11-16T09:59:17.845Z,78.72
2022-11-16T10:01:55.104Z,79.88
2022-11-16T10:04:43.807Z,79.81
2022-11-16T10:07:22.640Z,79.46
2022-11-16T10:09:49.699Z,79.13
2022-11-16T10:12:31.346Z,80.00
2022-11-16T10:15:17.103Z,80.18
2022-11-16T10:18:09.636Z,79.79
2022-11-16T10:20:54.725Z,80.42
2022-11-16T10:23:41.876Z,79.42
2022-11-16T10:26:32.116Z,80.66
2022-11-16T10:29:33.732Z,81.04
2022-11-16T10:32:18.816Z,80.77
2022-11-16T10:34:49.349Z,80.75
2022-11-16T10:37:15.945Z,80.34
2022-11-16T10:39:42.816Z,80.38
2022-11-16T10:42:18.316Z,80.95
2022-11-16T10:44:49.246Z,80.64
2022-11-16T10:47:28.183Z,81.08
2022-11-16T10:50:01.678Z,80.54
2022-11-16T10:52:28.425Z,80.15
2022-11-16T10:54:54.955Z,80.28
2022-11-16T10:57:23.747Z,80.37
2022-11-16T10:59:55.376Z,80.50
2022-11-16T11:02:24.728Z,80.43
2022-11-16T11:05:17.554Z,81.33
2022-11-16T11:07:55.325Z,80.70
2022-11-16T11:10:34.302Z,80.73
2022-11-16T11:13:12.598Z,81.23
2022-11-16T11:15:40.639Z,80.70
2022-11-16T11:18:20.011Z,81.67
2022-11-16T11:21:09.933Z,81.54
2022-11-16T11:23:44.039Z,81.15
2022-11-16T11:26:24.885Z,81.49
2022-11-16T11:28:51.597Z,80.82
2022-11-16T11:31:25.932Z,80.90
2022-11-16T11:33:59.391Z,80.82
2022-11-16T11:36:33.130Z,80.72
2022-11-16T11:39:05.688Z,81.00
2022-11-16T11:41:43.513Z,81.55
2022-11-16T11:44:13.034Z,81.24
2022-11-16T11:47:35.163Z,81.20
2022-11-16T11:49:38.467Z,81.40
2022-11-16T11:52:14.050Z,81.49
2022-11-16T11:54:46.722Z,81.67
2022-11-16T11:57:20.516Z,81.27
2022-11-16T11:59:48.097Z,80.98
2022-11-16T12:02:35.617Z,81.78
2022-11-16T12:05:15.326Z,80.99
2022-11-16T12:07:50.923Z,81.25
2022-11-16T12:10:46.456Z,81.85
2022-11-16T12:13:57.904Z,81.48
2022-11-16T12:16:38.487Z,81.35
2022-11-16T12:19:14.494Z,81.50
2022-11-16T12:22:06.905Z,81.16
2022-11-16T12:25:11.991Z,81.54
2022-11-16T12:28:10.037Z,81.84
2022-11-16T12:30:58.821Z,81.72
2022-11-16T12:34:03.987Z,81.34
2022-11-16T12:36:39.426Z,80.94
2022-11-16T12:39:14.875Z,80.60
2022-11-16T12:41:59.678Z,81.71
2022-11-16T12:44:40.738Z,81.34
2022-11-16T12:47:23.622Z,80.95
2022-11-16T12:50:08.632Z,80.96
2022-11-16T12:53:18.997Z,81.69
2022-11-16T12:56:09.206Z,80.62
2022-11-16T12:58:38.611Z,80.58
2022-11-16T13:01:25.324Z,81.73
2022-11-16T13:04:12.775Z,81.43
2022-11-16T13:07:11.420Z,81.48
2022-11-16T13:09:44.543Z,81.03
2022-11-16T13:12:16.915Z,81.02
2022-11-16T13:14:47.474Z,80.76
2022-11-16T13:17:28.003Z,81.80
2022-11-16T13:20:29.800Z,81.82
2022-11-16T13:23:07.602Z,81.50
2022-11-16T13:25:41.724Z,81.36
2022-11-16T13:28:33.902Z,81.34
2022-11-16T13:31:12.081Z,80.94
2022-11-16T13:33:52.619Z,81.69
2022-11-16T13:36:39.423Z,81.70
2022-11-16T13:39:13.747Z,81.14
2022-11-16T13:41:44.833Z,80.47
2022-11-16T13:44:17.675Z,80.76
2022-11-16T13:46:56.766Z,81.13
2022-11-16T13:49:33.192Z,81.34
2022-11-16T13:52:21.356Z,80.83
2022-11-16T13:54:53.073Z,80.92
2022-11-16T13:57:29.759Z,81.41
2022-11-16T14:00:02.426Z,81.65
2022-11-16T14:02:36.263Z,81.85
2022-11-16T14:05:04.617Z,81.10
2022-11-16T14:07:47.186Z,81.64
2022-11-16T14:10:49.029Z,81.36
2022-11-16T14:13:42.109Z,81.43
2022-11-16T14:16:17.824Z,81.12
2022-11-16T14:18:59.899Z,80.25
2022-11-16T14:21:42.315Z,80.96
2022-11-16T14:24:18.009Z,81.60
2022-11-16T14:26:53.521Z,80.98
2022-11-16T14:29:57.628Z,81.76
2022-11-16T14:32:35.827Z,81.38
2022-11-16T14:35:06.903Z,80.94
2022-11-16T14:37:38.519Z,81.07
2022-11-16T14:40:16.760Z,81.87
2022-11-16T14:43:15.458Z,81.78
2022-11-16T14:45:40.986Z,80.50
2022-11-16T14:48:18.391Z,81.25
2022-11-16T14:51:04.575Z,80.91
2022-11-16T14:53:34.142Z,80.60
2022-11-16T14:56:21.181Z,81.70
2022-11-16T14:58:58.882Z,81.50
2022-11-16T15:01:39.206Z,81.13
2022-11-16T15:04:10.535Z,80.90
2022-11-16T15:06:42.690Z,81.07
2022-11-16T15:09:16.671Z,81.02
2022-11-16T15:12:05.244Z,80.50
2022-11-16T15:14:35.450Z,80.73
2022-11-16T15:17:01.821Z,80.73
2022-11-16T15:19:31.900Z,80.43
2022-11-16T15:22:03.334Z,81.14
2022-11-16T15:24:32.525Z,80.57
2022-11-16T15:27:25.717Z,81.58
2022-11-16T15:29:52.277Z,80.61
2022-11-16T15:32:18.959Z,80.71
2022-11-16T15:34:55.285Z,81.75
2022-11-16T15:37:31.549Z,81.39
2022-11-16T15:39:59.972Z,80.80
2022-11-16T15:42:28.171Z,80.57
2022-11-16T15:44:56.013Z,80.59
2022-11-16T15:47:23.642Z,80.43
2022-11-16T15:49:52.881Z,80.10
2022-11-16T15:52:44.819Z,80.68
2022-11-16T15:55:49.434Z,80.79
2022-11-16T15:58:30.610Z,80.15
2022-11-16T16:00:59.006Z,79.43
2022-11-16T16:03:28.594Z,79.24
2022-11-16T16:05:55.710Z,79.04
2022-11-16T16:08:39.912Z,80.01
2022-11-16T16:11:27.621Z,80.24
2022-11-16T16:14:02.436Z,79.63
2022-11-16T16:16:36.298Z,79.73
2022-11-16T16:19:27.152Z,79.13
2022-11-16T16:21:53.703Z,79.04
2022-11-16T16:24:41.889Z,79.71
2022-11-16T16:27:25.115Z,79.29
2022-11-16T16:29:53.538Z,78.51
2022-11-16T16:32:27.452Z,78.83
2022-11-16T16:34:55.791Z,78.46
2022-11-16T16:37:22.812Z,77.79
2022-11-16T16:39:49.305Z,77.84
2022-11-16T16:42:17.397Z,78.36
2022-11-16T16:44:45.555Z,77.93
2022-11-16T16:47:12.623Z,77.89
2022-11-16T16:49:39.712Z,77.93
2022-11-16T16:52:07.045Z,77.99
2022-11-16T16:54:33.789Z,77.87
2022-11-16T16:57:02.254Z,77.93
2022-11-16T16:59:32.077Z,78.29
2022-11-16T17:01:59.305Z,78.10
2022-11-16T17:04:26.169Z,78.26
2022-11-16T17:06:52.967Z,78.23
2022-11-16T17:09:19.819Z,78.40
2022-11-16T17:11:47.659Z,78.45
2022-11-16T17:14:14.476Z,78.60
2022-11-16T17:16:41.046Z,78.71
2022-11-16T17:19:07.562Z,78.89
2022-11-16T17:21:34.026Z,79.03
2022-11-16T17:24:00.441Z,79.06
2022-11-16T17:26:29.316Z,79.09
2022-11-16T17:28:57.545Z,79.56
2022-11-16T17:31:25.904Z,79.73
2022-11-16T17:33:52.678Z,79.93
2022-11-16T17:36:20.073Z,80.66
2022-11-16T17:38:46.723Z,80.97
2022-11-16T17:41:18.685Z,81.71
2022-11-16T17:43:46.295Z,82.08
2022-11-16T17:46:15.447Z,82.16
2022-11-16T17:48:43.461Z,82.04
2022-11-16T17:51:14.852Z,82.95
2022-11-16T17:53:44.144Z,82.80
2022-11-16T17:56:16.106Z,83.17
2022-11-16T17:58:43.018Z,82.98
2022-11-16T18:01:09.812Z,83.63
2022-11-16T18:03:37.255Z,84.01
2022-11-16T18:06:08.712Z,84.27
2022-11-16T18:08:36.278Z,83.98
2022-11-16T18:11:24.822Z,84.79
2022-11-16T18:14:00.340Z,84.07
2022-11-16T18:16:29.926Z,84.18
2022-11-16T18:19:02.276Z,84.74
2022-11-16T18:21:29.457Z,84.32
2022-11-16T18:23:58.047Z,84.78
2022-11-16T18:26:25.022Z,84.81
2022-11-16T18:28:52.683Z,84.78
2022-11-16T18:31:21.492Z,84.87
2022-11-16T18:33:51.380Z,84.95
2022-11-16T18:36:19.813Z,85.23
2022-11-16T18:38:46.756Z,85.25
2022-11-16T18:41:13.107Z,85.36
2022-11-16T18:43:40.567Z,85.43
2022-11-16T18:46:07.116Z,85.31
2022-11-16T18:48:33.674Z,85.78
2022-11-16T18:51:01.217Z,85.69
2022-11-16T18:53:29.515Z,85.80
2022-11-16T18:55:58.130Z,85.57
2022-11-16T18:58:49.183Z,85.70
2022-11-16T19:01:14.632Z,86.11
2022-11-16T19:03:41.528Z,85.77
2022-11-16T19:06:09.564Z,86.03
2022-11-16T19:08:38.012Z,86.38
2022-11-16T19:11:10.312Z,86.25
2022-11-16T19:13:37.402Z,85.95
2022-11-16T19:16:04.243Z,86.41
2022-11-16T19:18:30.823Z,86.09
2022-11-16T19:21:07.840Z,87.37
2022-11-16T19:23:47.656Z,86.63
2022-11-16T19:26:16.015Z,86.24
2022-11-16T19:28:44.842Z,86.44
2022-11-16T19:31:12.787Z,86.40
2022-11-16T19:33:42.868Z,86.64
2022-11-16T19:36:13.712Z,86.61
2022-11-16T19:38:40.559Z,86.45
2022-11-16T19:41:09.536Z,86.87
2022-11-16T19:43:36.262Z,86.50
2022-11-16T19:46:10.501Z,87.24
2022-11-16T19:48:37.477Z,86.54
2022-11-16T19:51:09.412Z,87.07
2022-11-16T19:53:36.805Z,86.98
2022-11-16T19:56:04.350Z,86.75
2022-11-16T19:58:31.989Z,86.80
2022-11-16T20:01:03.020Z,87.33
2022-11-16T20:03:30.377Z,86.84
2022-11-16T20:06:07.121Z,87.80
2022-11-16T20:08:33.563Z,86.92
2022-11-16T20:11:00.188Z,87.00
2022-11-16T20:13:28.274Z,87.26
2022-11-16T20:15:55.934Z,87.17
2022-11-16T20:18:22.413Z,86.99
2022-11-16T20:20:48.868Z,87.16
2022-11-16T20:23:15.615Z,86.82
2022-11-16T20:25:42.078Z,86.49
2022-11-16T20:28:09.448Z,86.43
2022-11-16T20:30:35.952Z,86.24
2022-11-16T20:33:02.378Z,86.07
2022-11-16T20:35:28.943Z,85.60
2022-11-16T20:37:55.398Z,85.38
2022-11-16T20:40:21.827Z,85.20
2022-11-16T20:42:48.285Z,85.07
2022-11-16T20:45:14.946Z,85.17
2022-11-16T20:47:41.389Z,85.46
2022-11-16T20:50:08.403Z,85.39
2022-11-16T20:52:38.260Z,85.39
2022-11-16T20:55:09.510Z,85.51
2022-11-16T20:57:35.924Z,85.75
2022-11-16T21:00:02.482Z,85.82
2022-11-16T21:02:29.206Z,85.66
2022-11-16T21:05:00.032Z,85.34
2022-11-16T21:07:27.032Z,85.70
2022-11-16T21:10:12.023Z,85.46
2022-11-16T21:12:56.926Z,85.20
2022-11-16T21:15:23.482Z,85.12
2022-11-16T21:17:49.862Z,85.07
2022-11-16T21:20:31.997Z,85.16
2022-11-16T21:22:58.426Z,85.06
2022-11-16T21:25:24.822Z,85.20
2022-11-16T21:27:51.326Z,84.74
2022-11-16T21:30:17.736Z,85.05
2022-11-16T21:32:44.155Z,85.02
2022-11-16T21:35:10.545Z,85.07
2022-11-16T21:37:36.977Z,85.13
2022-11-16T21:40:03.623Z,85.53
2022-11-16T21:42:30.095Z,84.81
2022-11-16T21:44:56.476Z,84.95
2022-11-16T21:47:22.982Z,84.71
2022-11-16T21:50:24.340Z,84.60
2022-11-16T21:52:36.087Z,84.21
2022-11-16T21:55:02.502Z,84.61
2022-11-16T21:57:29.034Z,84.48
2022-11-16T21:59:55.471Z,84.05
2022-11-16T22:02:21.902Z,83.81
2022-11-16T22:05:06.747Z,84.20
2022-11-16T22:07:33.289Z,83.60
2022-11-16T22:10:01.433Z,83.62
2022-11-16T22:12:29.117Z,83.55
2022-11-16T22:14:56.061Z,82.94
2022-11-16T22:17:22.586Z,83.11
2022-11-16T22:19:49.016Z,83.05
2022-11-16T22:22:15.549Z,82.74
2022-11-16T22:24:42.061Z,82.37
2022-11-16T22:27:08.519Z,82.22
2022-11-16T22:29:34.983Z,81.99
2022-11-16T22:32:01.477Z,81.98
2022-11-16T22:34:28.093Z,81.59
2022-11-16T22:36:57.263Z,81.97
2022-11-16T22:39:23.675Z,81.59
2022-11-16T22:41:50.122Z,81.50
2022-11-16T22:44:16.534Z,81.07
2022-11-16T22:46:42.925Z,81.18
2022-11-16T22:49:09.700Z,81.04
2022-11-16T22:51:36.205Z,80.49
2022-11-16T22:54:04.549Z,80.88
2022-11-16T22:56:32.906Z,80.87
2022-11-16T22:59:01.056Z,80.38
2022-11-16T23:01:27.488Z,80.13
2022-11-16T23:03:53.992Z,79.87
2022-11-16T23:06:20.442Z,80.11
2022-11-16T23:08:47.598Z,79.35
2022-11-16T23:11:35.167Z,79.36
2022-11-16T23:14:20.461Z,79.34
2022-11-16T23:16:47.284Z,79.05
2022-11-16T23:19:33.920Z,79.36
2022-11-16T23:22:18.937Z,78.63
2022-11-16T23:25:04.763Z,78.98
2022-11-16T23:27:45.799Z,78.83
2022-11-16T23:30:13.538Z,78.56
2022-11-16T23:32:41.288Z,78.56
2022-11-16T23:35:09.041Z,78.21
2022-11-16T23:38:01.369Z,77.64
2022-11-16T23:40:30.481Z,77.86
2022-11-16T23:43:16.124Z,77.67
2022-11-16T23:45:43.312Z,77.33
2022-11-16T23:48:11.800Z,77.79
2022-11-16T23:50:40.688Z,77.65
2022-11-16T23:53:08.988Z,77.68
2022-11-16T23:55:38.393Z,77.29
2022-11-16T23:58:05.805Z,76.97
